»·PEaware :: N24SG KBUR-KLAS

N24SG :: KBUR-KLAS

FLIGHT INFORMATION

Flight Status: Arrived
Operator: Privately registered:
United States
More flights under this callsign
Pilot: Sander O. (16958)
Aircraft: BEECH AIRCRAFT A90-E90 KING AIR
(BE9L)
More flights by this aircraft type
Origin: KBUR Bob Hope-Burbank
United States
Destination: KLAS McCarran Intl
United States
More flights between these airports :: More routes between these airports
Route: +VNY3 DAG CRESO4
File this flight plan on PilotEdge
Remarks: I-05
Altitude:
(Current/Filed)
10,000ft
Speed:
(Current/Filed)
0kts
Departed: 25-Nov-17 12:07 PM
Arrived: 25-Nov-17 01:21 PM
Distance/Time
Traveled:
193nm/1:14
Distance/Time
To Go:
Arrived

Flight Plot

Page will automatically refresh every two minutes.

Flight plan parsing failed; only flown route is shown


Map Options




Map Legend


Flown Route
Filed Route
Departure Airport
Arrival Airport
Navaid (VOR, NDB)
Fix

Horizontal Profiles

Position Reports

Time Latitude Longitude Heading Altitude Ground
Speed
25-Nov-17 11:48 34.196334 -118.367559 358 780ft 0kts
25-Nov-17 11:49 34.196334 -118.367559 358 780ft 0kts
25-Nov-17 11:50 34.196334 -118.367559 358 780ft 0kts
25-Nov-17 11:51 34.196334 -118.367559 358 780ft 0kts
25-Nov-17 11:52 34.196334 -118.367559 358 780ft 0kts
25-Nov-17 11:53 34.196334 -118.367559 358 780ft 0kts
25-Nov-17 11:54 34.196334 -118.367559 358 780ft 0kts
25-Nov-17 11:55 34.196334 -118.367559 358 780ft 0kts
25-Nov-17 11:56 34.196334 -118.367559 358 780ft 0kts
25-Nov-17 11:57 34.196334 -118.367559 358 780ft 0kts
25-Nov-17 11:58 34.196334 -118.367559 358 780ft 0kts
25-Nov-17 11:59 34.196334 -118.367559 358 780ft 0kts
25-Nov-17 12:00 34.196334 -118.367559 358 780ft 0kts
25-Nov-17 12:01 34.196334 -118.367559 358 780ft 0kts
25-Nov-17 12:02 34.196334 -118.367559 358 780ft 0kts
25-Nov-17 12:03 34.196334 -118.367559 358 780ft 0kts
25-Nov-17 12:04 34.196334 -118.367559 358 780ft 0kts
25-Nov-17 12:05 34.196334 -118.367559 358 780ft 0kts
25-Nov-17 12:06 34.196334 -118.367559 358 780ft 0kts
25-Nov-17 12:07 34.196334 -118.367559 358 780ft 0kts
25-Nov-17 12:08 34.196334 -118.367559 358 780ft 0kts
25-Nov-17 12:09 34.196928 -118.367989 271 780ft 9kts
25-Nov-17 12:10 34.197082 -118.369051 339 780ft 0kts
25-Nov-17 12:11 34.197082 -118.369051 339 780ft 0kts
25-Nov-17 12:12 34.197789 -118.356083 89 853ft 119kts
25-Nov-17 12:13 34.183785 -118.340140 206 2496ft 108kts
25-Nov-17 12:14 34.160951 -118.365644 224 4362ft 124kts
25-Nov-17 12:15 34.167436 -118.392745 351 6240ft 122kts
25-Nov-17 12:16 34.202123 -118.397073 352 7874ft 134kts
25-Nov-17 12:17 34.238891 -118.401107 352 9460ft 137kts
25-Nov-17 12:18 34.276619 -118.404947 352 10920ft 141kts
25-Nov-17 12:19 34.324047 -118.411672 332 10995ft 201kts
25-Nov-17 12:20 34.367912 -118.448274 328 10997ft 210kts
25-Nov-17 12:21 34.412039 -118.413473 51 11003ft 218kts
25-Nov-17 12:22 34.448260 -118.356576 52 11019ft 214kts
25-Nov-17 12:23 34.484001 -118.299710 52 11052ft 213kts
25-Nov-17 12:24 34.520005 -118.242267 53 11075ft 215kts
25-Nov-17 12:25 34.556162 -118.184446 52 11033ft 217kts
25-Nov-17 12:26 34.591989 -118.127061 53 11036ft 217kts
25-Nov-17 12:27 34.627917 -118.069261 56 11033ft 216kts
25-Nov-17 12:28 34.638483 -117.998388 83 11034ft 215kts
25-Nov-17 12:29 34.646253 -117.928370 83 11031ft 215kts
25-Nov-17 12:30 34.653517 -117.861733 83 11027ft 215kts
25-Nov-17 12:31 34.660921 -117.793379 83 11027ft 215kts
25-Nov-17 12:32 34.674601 -117.723261 73 11030ft 215kts
25-Nov-17 12:33 34.691919 -117.655441 73 11033ft 215kts
25-Nov-17 12:34 34.709527 -117.586638 73 11037ft 215kts
25-Nov-17 12:35 34.727353 -117.516832 73 11037ft 216kts
25-Nov-17 12:36 34.745104 -117.447135 73 11036ft 216kts
25-Nov-17 12:37 34.762771 -117.377585 73 11037ft 216kts
25-Nov-17 12:38 34.780331 -117.308279 73 11035ft 216kts
25-Nov-17 12:39 34.797724 -117.239448 73 11032ft 216kts
25-Nov-17 12:40 34.815235 -117.169958 74 11028ft 216kts
25-Nov-17 12:41 34.832674 -117.100574 74 11024ft 216kts
25-Nov-17 12:42 34.850048 -117.031236 74 11003ft 215kts
25-Nov-17 12:43 34.867315 -116.962160 74 11001ft 214kts
25-Nov-17 12:44 34.884440 -116.893464 73 11000ft 212kts
25-Nov-17 12:45 34.901493 -116.824897 73 11000ft 212kts
25-Nov-17 12:46 34.918234 -116.757386 73 11000ft 213kts
25-Nov-17 12:47 34.935112 -116.689133 73 11001ft 215kts
25-Nov-17 12:48 34.952883 -116.619083 73 11001ft 217kts
25-Nov-17 12:49 34.970624 -116.549126 73 11006ft 218kts
25-Nov-17 12:50 35.002296 -116.486828 59 11013ft 220kts
25-Nov-17 12:51 35.032014 -116.421494 59 11042ft 221kts
25-Nov-17 12:52 35.060311 -116.357823 59 11047ft 222kts
25-Nov-17 12:53 35.089560 -116.291731 60 11044ft 221kts
25-Nov-17 12:54 35.118646 -116.225846 60 11045ft 221kts
25-Nov-17 12:55 35.147469 -116.160431 60 11045ft 221kts
25-Nov-17 12:56 35.176454 -116.094520 60 11045ft 222kts
25-Nov-17 12:57 35.204662 -116.030252 60 11045ft 222kts
25-Nov-17 12:58 35.233835 -115.963658 60 11045ft 222kts
25-Nov-17 12:59 35.262745 -115.897532 60 11047ft 222kts
25-Nov-17 13:00 35.291869 -115.830784 60 11052ft 222kts
25-Nov-17 13:01 35.324900 -115.768483 45 11058ft 220kts
25-Nov-17 13:02 35.366119 -115.713263 44 10148ft 221kts
25-Nov-17 13:03 35.404054 -115.662608 44 10061ft 191kts
25-Nov-17 13:04 35.434222 -115.622340 43 10066ft 186kts
25-Nov-17 13:05 35.471327 -115.572718 44 10067ft 208kts
25-Nov-17 13:06 35.510665 -115.519985 44 10065ft 213kts
25-Nov-17 13:07 35.550730 -115.466247 44 10065ft 215kts
25-Nov-17 13:08 35.591004 -115.412152 44 10065ft 215kts
25-Nov-17 13:09 35.630819 -115.358589 44 9885ft 219kts
25-Nov-17 13:10 35.672416 -115.302520 45 8721ft 222kts
25-Nov-17 13:11 35.711796 -115.249385 45 7506ft 204kts
25-Nov-17 13:12 35.748032 -115.200414 44 7064ft 195kts
25-Nov-17 13:13 35.788958 -115.158488 12 7063ft 196kts
25-Nov-17 13:14 35.841136 -115.142242 12 7057ft 198kts
25-Nov-17 13:15 35.894158 -115.125832 12 7055ft 198kts
25-Nov-17 13:16 35.945175 -115.110089 11 7052ft 195kts
25-Nov-17 13:17 35.994657 -115.094861 11 7051ft 194kts
25-Nov-17 13:18 36.044139 -115.079782 12 6808ft 187kts
25-Nov-17 13:19 36.086045 -115.067552 12 5905ft 162kts
25-Nov-17 13:20 36.120914 -115.057863 11 5117ft 136kts
25-Nov-17 13:21 36.148465 -115.057036 301 4950ft 91kts
25-Nov-17 13:22 36.158435 -115.090557 291 4365ft 131kts
25-Nov-17 13:23 36.155104 -115.124127 205 3638ft 112kts
25-Nov-17 13:24 36.130668 -115.138654 202 2894ft 112kts
25-Nov-17 13:25 36.107884 -115.151813 203 2436ft 105kts
25-Nov-17 13:26 36.089415 -115.162384 226 2144ft 26kts
25-Nov-17 13:27 36.089433 -115.163584 294 2144ft 0kts
25-Nov-17 13:28 36.089434 -115.165672 268 2144ft 10kts
25-Nov-17 13:29 36.090073 -115.165899 107 2144ft 0kts
25-Nov-17 13:30 36.090073 -115.165899 107 2144ft 0kts

Navigation Log

Ident Type
Flight plan parsing failed, navigation log unavailable